Time;durP1;ratioP1;P1;durP2;ratioP2;P2;SDS_P1;SDS_P2;PMS_P1;PMS_P2;Temp;Humidity;BMP_temperature;BMP_pressure;BME280_temperature;BME280_humidity;BME280_pressure;Samples;Min_cycle;Max_cycle;Signal;HPM_P1;HPM_P2
2024/04/08 00:00:43;;;;;;;12.30;2.97;;;17.70;53.50;;;13.42;87.45;95123.31;4989491;28;20438;-51
2024/04/08 00:03:09;;;;;;;12.63;2.65;;;17.60;53.60;;;13.46;86.23;95125.41;4988222;28;20034;-54
2024/04/08 00:05:36;;;;;;;13.50;2.70;;;17.60;53.70;;;13.44;86.36;95120.31;4988791;28;20076;-51
2024/04/08 00:08:03;;;;;;;11.68;2.35;;;17.50;53.70;;;13.39;88.54;95115.88;4987580;28;20025;-50
2024/04/08 00:10:29;;;;;;;14.27;2.90;;;17.50;53.90;;;13.32;88.86;95112.78;4989100;28;20052;-50
2024/04/08 00:12:55;;;;;;;10.70;2.75;;;17.50;54.00;;;13.25;89.82;95115.00;4992212;28;20029;-49
2024/04/08 00:15:21;;;;;;;12.85;2.70;;;17.40;54.20;;;13.13;91.16;95114.66;4993818;28;20036;-50
2024/04/08 00:17:48;;;;;;;12.23;2.88;;;17.40;54.40;;;13.13;90.63;95109.28;4992749;28;20022;-54
2024/04/08 00:20:14;;;;;;;8.77;2.78;;;17.30;54.50;;;13.12;89.84;95102.38;4991512;28;20026;-53
2024/04/08 00:22:41;;;;;;;10.32;2.67;;;17.30;54.60;;;13.06;89.98;95098.97;4992859;28;20370;-54
2024/04/08 00:25:09;;;;;;;12.48;2.90;;;17.20;54.70;;;13.03;89.61;95096.88;4992402;28;20025;-54
2024/04/08 00:27:36;;;;;;;13.98;3.30;;;17.10;54.80;;;13.05;89.15;95096.59;4991494;28;20396;-52
2024/04/08 00:30:04;;;;;;;13.57;2.60;;;17.10;54.80;;;13.04;88.60;95093.16;4992237;28;20029;-55
2024/04/08 00:32:31;;;;;;;12.52;2.80;;;17.10;54.80;;;13.03;88.00;95091.53;4991560;28;20460;-54
2024/04/08 00:34:57;;;;;;;8.82;2.33;;;17.10;54.80;;;13.04;87.79;95101.16;4991448;28;20539;-51
2024/04/08 00:37:24;;;;;;;12.13;3.10;;;17.20;54.90;;;13.03;88.92;95099.56;4991467;28;20025;-49
2024/04/08 00:39:50;;;;;;;7.10;2.17;;;17.10;54.90;;;12.99;88.99;95090.53;4992070;28;20061;-52
2024/04/08 00:42:16;;;;;;;16.65;3.10;;;17.10;54.90;;;12.97;88.69;95092.69;4991783;28;20026;-50
2024/04/08 00:44:43;;;;;;;13.48;3.30;;;17.10;55.00;;;12.97;88.30;95090.03;4992013;28;20053;-51
2024/04/08 00:47:12;;;;;;;10.88;2.58;;;17.10;55.00;;;12.96;87.42;95078.53;4992368;28;20462;-54
2024/04/08 00:49:43;;;;;;;8.35;2.78;;;17.10;55.00;;;12.96;87.75;95078.53;4991276;28;20391;-50
2024/04/08 00:52:14;;;;;;;13.02;2.72;;;17.10;55.10;;;13.00;87.34;95080.63;4992091;28;20033;-51
2024/04/08 00:54:41;;;;;;;11.13;3.13;;;17.10;55.10;;;13.03;86.46;95090.75;4991414;28;20037;-50
2024/04/08 00:57:13;;;;;;;10.23;2.88;;;17.10;55.00;;;13.06;87.03;95090.97;4991322;28;20283;-52
2024/04/08 00:59:40;;;;;;;8.40;2.58;;;17.10;55.20;;;13.04;87.51;95079.78;4969631;28;20080;-51
2024/04/08 01:02:06;;;;;;;14.68;3.10;;;17.10;55.00;;;13.02;87.23;95084.63;4995030;28;20055;-52
2024/04/08 01:04:33;;;;;;;9.93;2.80;;;17.10;55.00;;;13.01;87.74;95088.38;4991442;28;20361;-49
2024/04/08 01:07:00;;;;;;;13.15;2.95;;;17.10;55.00;;;12.99;87.73;95082.53;5026189;23;20053;-53
2024/04/08 01:09:28;;;;;;;11.45;2.60;;;17.10;55.10;;;12.99;86.40;95081.72;5015887;28;20124;-54
2024/04/08 01:11:57;;;;;;;9.05;2.78;;;17.10;55.00;;;13.01;85.68;95079.56;5000733;28;20083;-54
2024/04/08 01:14:23;;;;;;;8.10;2.65;;;17.10;55.00;;;13.06;85.96;95068.78;5015129;28;20039;-53
2024/04/08 01:16:49;;;;;;;11.32;2.97;;;17.10;55.00;;;13.09;85.93;95077.00;5023872;28;20025;-55
2024/04/08 01:19:22;;;;;;;10.63;2.78;;;17.10;55.00;;;13.04;86.20;95081.66;5010001;28;20064;-52
2024/04/08 01:21:47;;;;;;;12.25;2.50;;;17.10;55.00;;;13.05;86.22;95070.66;4998991;28;20029;-52
2024/04/08 01:24:14;;;;;;;14.32;2.80;;;17.10;54.80;;;13.06;86.59;95066.88;5010127;28;20641;-52
2024/04/08 01:26:40;;;;;;;13.23;2.25;;;17.10;54.90;;;13.04;85.82;95068.28;4996905;28;20071;-54
2024/04/08 01:29:07;;;;;;;8.40;2.53;;;17.10;54.90;;;12.99;87.28;95069.16;5017905;28;20025;-51
2024/04/08 01:31:33;;;;;;;10.23;2.50;;;17.00;54.80;;;12.81;87.99;95067.28;5016364;28;20100;-50
2024/04/08 01:33:59;;;;;;;14.20;3.38;;;17.00;55.00;;;12.86;86.98;95070.69;5011146;28;20052;-50
2024/04/08 01:36:26;;;;;;;11.20;3.00;;;17.00;54.90;;;12.88;87.64;95067.72;5011333;28;20022;-50
2024/04/08 01:38:52;;;;;;;7.15;2.10;;;17.00;55.00;;;12.77;89.26;95066.28;4994459;28;20049;-52
2024/04/08 01:41:18;;;;;;;14.35;2.67;;;16.90;55.00;;;12.67;89.74;95057.34;5010825;28;20053;-52
2024/04/08 01:43:45;;;;;;;13.00;2.60;;;16.90;55.10;;;12.64;90.40;95059.81;5006895;28;20436;-51
2024/04/08 01:46:11;;;;;;;9.75;2.25;;;16.90;55.20;;;12.49;91.52;95058.94;5014021;28;20383;-51
2024/04/08 01:48:37;;;;;;;6.90;2.50;;;16.80;55.20;;;12.45;91.94;95060.59;4996691;28;20437;-50
2024/04/08 01:51:03;;;;;;;12.30;3.10;;;16.80;55.40;;;12.34;90.59;95056.47;5016043;28;20038;-50
2024/04/08 01:53:29;;;;;;;12.95;2.90;;;16.70;55.40;;;12.40;91.94;95049.97;5010151;28;20538;-55
2024/04/08 01:55:55;;;;;;;10.88;2.95;;;16.60;55.50;;;12.37;91.86;95034.53;5008831;28;20075;-52
2024/04/08 01:58:21;;;;;;;12.85;2.60;;;16.60;55.60;;;12.38;91.46;95038.81;5011162;28;20029;-49
2024/04/08 02:00:47;;;;;;;14.40;3.13;;;16.60;55.70;;;12.39;91.70;95050.28;5008012;28;20087;-53
2024/04/08 02:03:12;;;;;;;15.90;3.10;;;16.50;55.80;;;12.36;89.56;95050.84;5015415;28;20037;-53
2024/04/08 02:05:38;;;;;;;15.23;3.20;;;16.50;55.80;;;12.40;89.54;95052.66;5010212;28;20045;-50
2024/04/08 02:08:05;;;;;;;10.25;3.20;;;16.50;55.70;;;12.41;88.46;95053.44;4992363;28;20208;-49
2024/04/08 02:10:31;;;;;;;18.27;3.00;;;16.50;55.70;;;12.43;90.03;95049.41;5008417;28;20076;-50
2024/04/08 02:12:57;;;;;;;8.57;2.88;;;16.60;55.80;;;12.43;89.92;95051.28;5010648;28;20402;-49
2024/04/08 02:15:22;;;;;;;9.10;2.65;;;16.50;55.80;;;12.35;91.09;95039.38;5008809;28;20041;-49
2024/04/08 02:17:48;;;;;;;14.02;2.92;;;16.60;55.80;;;12.41;90.47;95040.91;5008659;28;20104;-51
2024/04/08 02:20:14;;;;;;;15.98;3.03;;;16.60;55.90;;;12.40;90.92;95043.84;5010361;28;20029;-50
2024/04/08 02:22:40;;;;;;;17.83;2.67;;;16.50;55.90;;;12.40;90.45;95038.50;5012824;28;20028;-50
2024/04/08 02:25:08;;;;;;;14.07;2.88;;;16.50;55.90;;;12.36;90.79;95040.97;5009797;28;20372;-50
2024/04/08 02:27:34;;;;;;;12.80;2.38;;;16.50;55.90;;;12.30;90.21;95046.66;5007631;28;20033;-51
2024/04/08 02:30:00;;;;;;;11.00;2.80;;;16.50;55.90;;;12.34;91.50;95050.34;5010769;28;20033;-50
2024/04/08 02:32:26;;;;;;;17.38;2.92;;;16.50;56.00;;;12.29;90.22;95047.75;5013804;28;20025;-51
2024/04/08 02:34:52;;;;;;;11.00;3.72;;;16.40;56.00;;;12.26;91.40;95057.13;5010643;28;20041;-51
2024/04/08 02:37:18;;;;;;;14.45;2.95;;;16.40;56.00;;;12.28;90.85;95057.63;5009580;28;20426;-52
2024/04/08 02:39:44;;;;;;;12.55;3.05;;;16.40;56.00;;;12.26;89.95;95070.47;5007882;28;20092;-54
2024/04/08 02:42:10;;;;;;;18.85;3.20;;;16.30;55.90;;;12.22;89.89;95067.59;5007451;28;20083;-51
2024/04/08 02:44:36;;;;;;;17.00;3.08;;;16.40;56.00;;;12.20;88.85;95059.06;5010165;28;20483;-52
2024/04/08 02:47:02;;;;;;;12.43;3.20;;;16.30;56.00;;;12.21;88.25;95065.19;5016656;28;20513;-52
2024/04/08 02:49:28;;;;;;;9.60;2.80;;;16.30;56.00;;;12.22;87.75;95078.28;5009799;28;20128;-49
2024/04/08 02:51:57;;;;;;;13.05;2.45;;;16.30;55.90;;;12.23;87.76;95100.44;5019250;28;20459;-50
2024/04/08 02:54:23;;;;;;;20.60;3.45;;;16.30;55.90;;;12.26;86.83;95097.19;5007897;28;20457;-53
2024/04/08 02:56:48;;;;;;;8.25;2.63;;;16.30;55.80;;;12.32;85.67;95104.06;5004453;28;20053;-50
2024/04/08 02:59:17;;;;;;;8.70;2.92;;;16.40;55.80;;;12.40;84.98;95119.41;5010124;28;20131;-51
2024/04/08 03:01:43;;;;;;;9.60;2.60;;;16.40;55.70;;;12.43;84.87;95113.50;5009088;28;20021;-53
2024/04/08 03:04:09;;;;;;;13.65;3.05;;;16.40;55.60;;;12.48;84.44;95104.66;4996863;28;20442;-52
2024/04/08 03:06:35;;;;;;;7.43;2.10;;;16.50;55.60;;;12.50;84.14;95113.16;5005753;28;20442;-53
2024/04/08 03:09:04;;;;;;;12.32;2.92;;;16.50;55.50;;;12.45;86.93;95114.03;5006137;28;20029;-50
2024/04/08 03:11:30;;;;;;;9.30;2.80;;;16.50;55.40;;;12.30;87.15;95116.09;5009949;28;20036;-49
2024/04/08 03:13:56;;;;;;;16.90;2.92;;;16.50;55.30;;;12.19;87.52;95113.56;5008218;28;20029;-49
2024/04/08 03:16:22;;;;;;;16.63;3.25;;;16.40;55.30;;;12.12;88.34;95104.28;5006361;28;20078;-50
2024/04/08 03:18:50;;;;;;;22.75;3.60;;;16.40;55.40;;;12.12;88.93;95097.06;5005831;28;20804;-50
2024/04/08 03:21:16;;;;;;;14.93;3.03;;;16.30;56.10;;;12.07;88.27;95104.38;5008215;28;20017;-50
2024/04/08 03:23:42;;;;;;;13.48;3.28;;;16.20;55.40;;;11.99;89.30;95108.44;5004407;28;20080;-52
2024/04/08 03:26:12;;;;;;;10.52;2.63;;;16.20;55.50;;;11.97;89.45;95115.94;5011544;28;20119;-50
2024/04/08 03:28:38;;;;;;;9.98;3.10;;;16.10;55.60;;;11.84;91.23;95103.25;5004137;28;20030;-54
2024/04/08 03:31:07;;;;;;;13.57;3.08;;;16.10;55.80;;;11.72;91.66;95095.63;5012006;28;20017;-50
2024/04/08 03:33:34;;;;;;;10.38;2.90;;;16.00;55.90;;;11.66;91.40;95094.09;4990434;28;20029;-50
2024/04/08 03:36:09;;;;;;;10.93;2.65;;;15.90;56.00;;;11.64;91.39;95091.72;5010492;28;20029;-49
2024/04/08 03:38:35;;;;;;;9.00;2.40;;;15.90;56.20;;;11.60;92.00;95093.38;5001674;28;20364;-50
2024/04/08 03:41:05;;;;;;;15.35;3.13;;;15.80;56.10;;;11.56;91.95;95095.81;5009742;28;20024;-50
2024/04/08 03:43:33;;;;;;;9.13;2.80;;;15.80;56.30;;;11.43;93.42;95101.78;5013799;28;20456;-51
2024/04/08 03:46:00;;;;;;;17.65;3.40;;;15.80;56.30;;;11.37;94.44;95113.56;5012264;28;20048;-55
2024/04/08 03:48:26;;;;;;;11.38;3.40;;;15.70;56.40;;;11.33;94.44;95110.66;5010086;28;20029;-52
2024/04/08 03:50:52;;;;;;;12.27;2.55;;;15.60;56.40;;;11.38;93.63;95115.19;4996161;28;20064;-50
2024/04/08 03:53:19;;;;;;;9.13;2.90;;;15.60;56.60;;;11.38;92.96;95107.19;5009703;28;20369;-53
2024/04/08 03:55:45;;;;;;;8.93;2.95;;;15.60;56.70;;;11.34;94.39;95114.94;5016245;28;20029;-52
2024/04/08 03:58:11;;;;;;;12.65;3.00;;;15.60;56.70;;;11.20;95.91;95100.66;5010196;28;20026;-49
2024/04/08 04:00:37;;;;;;;8.82;2.58;;;15.50;56.70;;;11.12;95.06;95117.25;5017268;28;20055;-49
2024/04/08 04:03:03;;;;;;;13.38;2.45;;;15.50;56.70;;;11.17;95.17;95111.09;5011589;28;20025;-53
2024/04/08 04:05:29;;;;;;;11.02;2.75;;;15.40;56.80;;;11.06;96.59;95097.03;5015739;28;20022;-53
2024/04/08 04:07:58;;;;;;;9.30;2.28;;;15.40;56.90;;;11.04;95.84;95096.53;5006287;28;20032;-51
2024/04/08 04:10:24;;;;;;;15.40;3.05;;;15.30;56.90;;;10.97;96.35;95093.38;5012826;28;20379;-53
2024/04/08 04:12:49;;;;;;;12.52;3.03;;;15.30;57.00;;;10.94;96.26;95096.63;5011912;28;20384;-48
2024/04/08 04:15:15;;;;;;;10.95;2.55;;;15.20;57.10;;;10.99;95.31;95099.22;4993507;28;20029;-51
2024/04/08 04:17:45;;;;;;;11.25;2.53;;;15.20;57.20;;;11.06;95.00;95103.19;5011550;28;20112;-54
2024/04/08 04:20:24;;;;;;;13.30;2.80;;;15.20;57.40;;;11.13;95.07;95108.19;5008477;28;20028;-49
2024/04/08 04:22:50;;;;;;;8.80;2.70;;;15.20;57.50;;;11.11;94.91;95116.44;5014324;28;20101;-55
2024/04/08 04:25:17;;;;;;;15.90;2.80;;;15.20;57.40;;;11.11;94.54;95113.78;5010486;28;20112;-53
2024/04/08 04:27:42;;;;;;;9.88;2.90;;;15.20;57.30;;;11.00;95.58;95122.94;5010982;28;20032;-57
2024/04/08 04:30:09;;;;;;;7.95;2.80;;;15.20;57.30;;;10.91;97.11;95121.16;5008688;28;20022;-53
2024/04/08 04:32:35;;;;;;;9.00;2.80;;;15.20;57.40;;;10.81;97.74;95117.50;5016507;28;20017;-55
2024/04/08 04:35:01;;;;;;;8.77;2.70;;;15.10;57.40;;;10.66;98.81;95109.59;5009971;28;20040;-56
2024/04/08 04:37:27;;;;;;;16.75;3.10;;;15.10;57.50;;;10.58;100.00;95110.97;5011444;28;20029;-57
2024/04/08 04:39:53;;;;;;;10.13;2.95;;;15.00;57.60;;;10.56;99.57;95114.97;5008006;28;20026;-57
2024/04/08 04:42:19;;;;;;;16.40;3.08;;;14.90;57.60;;;10.53;99.86;95120.84;5018350;28;20060;-53
2024/04/08 04:44:45;;;;;;;8.88;2.53;;;14.90;57.70;;;10.54;99.18;95123.25;5007127;28;20036;-56
2024/04/08 04:47:11;;;;;;;5.20;2.40;;;14.80;57.80;;;10.39;100.00;95121.44;5016837;28;20021;-56
2024/04/08 04:49:37;;;;;;;16.00;2.85;;;14.80;57.80;;;10.38;100.00;95130.50;4999022;28;20076;-56
2024/04/08 04:52:03;;;;;;;8.07;2.75;;;14.70;58.00;;;10.34;100.00;95136.63;5017292;28;20016;-54
2024/04/08 04:54:29;;;;;;;11.40;2.88;;;14.70;58.00;;;10.22;100.00;95123.63;5010578;28;20054;-55
2024/04/08 04:56:55;;;;;;;16.60;3.35;;;14.60;58.20;;;10.25;100.00;95128.41;5014060;28;20050;-56
2024/04/08 04:59:22;;;;;;;17.08;3.67;;;14.60;58.30;;;10.26;100.00;95131.88;5008442;28;20156;-54
2024/04/08 05:01:48;;;;;;;9.60;2.45;;;14.60;58.40;;;10.23;100.00;95133.22;5008589;28;20488;-54
2024/04/08 05:04:14;;;;;;;7.75;2.50;;;14.50;59.00;;;10.23;100.00;95135.88;5013300;28;20032;-53
2024/04/08 05:06:40;;;;;;;10.77;2.70;;;14.50;58.50;;;10.18;100.00;95133.22;5011404;28;20045;-56
2024/04/08 05:09:06;;;;;;;10.35;2.42;;;14.50;58.70;;;10.18;100.00;95135.88;5011681;28;20108;-54
2024/04/08 05:11:32;;;;;;;9.27;3.03;;;14.50;58.70;;;10.18;100.00;95151.84;5016152;28;20450;-55
2024/04/08 05:13:57;;;;;;;14.75;3.00;;;14.50;58.80;;;10.22;100.00;95150.25;5017025;28;20025;-54
2024/04/08 05:16:23;;;;;;;14.30;3.22;;;14.50;58.80;;;10.28;100.00;95153.69;5016907;28;20021;-49
2024/04/08 05:18:49;;;;;;;13.43;2.95;;;14.50;58.90;;;10.32;100.00;95155.56;5021942;28;20029;-47
2024/04/08 05:21:15;;;;;;;11.93;2.72;;;14.60;59.00;;;10.33;100.00;95156.34;5011805;28;20435;-48
2024/04/08 05:23:44;;;;;;;9.23;2.95;;;14.60;59.00;;;10.38;100.00;95154.47;5014962;28;20444;-50
2024/04/08 05:26:11;;;;;;;13.52;3.30;;;14.60;59.00;;;10.41;100.00;95153.13;5013417;28;20060;-53
2024/04/08 05:28:37;;;;;;;9.18;2.58;;;14.70;59.10;;;10.47;100.00;95151.25;4994375;28;20511;-54
2024/04/08 05:31:04;;;;;;;13.18;3.13;;;14.70;59.20;;;10.44;100.00;95141.16;5011764;28;20021;-53
2024/04/08 05:33:29;;;;;;;13.05;2.90;;;14.80;59.20;;;10.52;100.00;95138.69;5013051;28;20503;-53
2024/04/08 05:35:56;;;;;;;9.65;2.30;;;14.80;59.20;;;10.58;100.00;95144.78;5012126;28;20031;-57
2024/04/08 05:38:22;;;;;;;13.73;3.10;;;14.90;59.20;;;10.61;100.00;95139.69;5012497;28;20027;-54
2024/04/08 05:40:48;;;;;;;13.68;3.00;;;14.90;59.20;;;10.64;100.00;95136.50;5013176;28;20065;-50
2024/04/08 05:43:16;;;;;;;13.43;3.17;;;15.00;59.20;;;10.70;100.00;95145.25;5019614;28;20432;-54
2024/04/08 05:45:43;;;;;;;10.77;2.67;;;15.00;59.20;;;10.75;100.00;95147.06;5014190;28;20029;-54
2024/04/08 05:48:09;;;;;;;11.35;2.60;;;15.10;59.20;;;10.83;100.00;95138.50;5020340;28;20035;-55
2024/04/08 05:50:35;;;;;;;9.65;2.83;;;15.20;59.20;;;10.88;100.00;95136.63;5007547;28;20045;-52
2024/04/08 05:53:01;;;;;;;17.25;2.80;;;15.20;59.10;;;10.89;100.00;95134.75;5014086;28;20112;-54
2024/04/08 05:55:31;;;;;;;8.93;2.50;;;15.30;59.20;;;10.94;100.00;95123.28;5016552;28;20033;-58
2024/04/08 05:57:57;;;;;;;15.23;3.22;;;15.30;59.20;;;10.98;100.00;95111.75;5015453;28;20024;-55
2024/04/08 06:00:24;;;;;;;6.53;2.35;;;15.40;59.20;;;11.04;100.00;95117.84;5018745;28;20056;-54
2024/04/08 06:02:52;;;;;;;8.20;2.60;;;15.50;59.20;;;11.14;100.00;95117.78;5018017;28;20028;-53
2024/04/08 06:05:24;;;;;;;6.15;2.60;;;15.60;59.20;;;11.27;100.00;95122.47;5012143;28;20075;-51
2024/04/08 06:07:50;;;;;;;;;;;15.70;59.20;;;11.37;100.00;95124.22;5014663;28;20025;-56
2024/04/08 06:10:20;;;;;;;11.77;2.58;;;15.80;58.70;;;11.52;100.00;95123.31;5019276;28;19908;-56
2024/04/08 06:12:46;;;;;;;8.60;2.90;;;16.00;58.70;;;11.68;100.00;95122.06;5017238;28;20039;-49
2024/04/08 06:15:15;;;;;;;12.25;3.10;;;16.20;58.70;;;11.83;100.00;95115.78;5011023;28;20032;-56
2024/04/08 06:17:42;;;;;;;13.90;2.80;;;16.30;58.70;;;12.00;100.00;95118.84;5018618;28;20039;-53
2024/04/08 06:20:09;;;;;;;10.02;3.20;;;16.50;58.50;;;12.19;99.24;95118.91;5012658;28;20025;-49
2024/04/08 06:22:35;;;;;;;11.15;3.10;;;16.70;58.40;;;12.40;99.09;95123.97;5015225;28;20022;-52
2024/04/08 06:25:06;;;;;;;26.17;13.32;;;16.90;58.30;;;12.60;97.99;95121.03;5015985;28;20529;-48
2024/04/08 06:27:33;;;;;;;28.17;14.25;;;17.10;58.10;;;12.83;97.80;95121.25;5008654;28;20055;-48
2024/04/08 06:29:59;;;;;;;19.75;7.22;;;17.40;58.00;;;13.03;97.99;95106.78;5016869;28;20471;-51
2024/04/08 06:32:25;;;;;;;17.60;7.97;;;17.60;57.80;;;13.21;96.22;95116.66;5021608;28;20013;-49
2024/04/08 06:34:51;;;;;;;49.92;20.98;;;17.80;57.70;;;13.44;95.28;95128.34;5017531;28;20086;-48
2024/04/08 06:37:17;;;;;;;33.75;17.45;;;18.00;57.40;;;13.64;92.85;95119.19;5015499;28;20422;-48
2024/04/08 06:39:43;;;;;;;31.20;13.40;;;18.30;57.20;;;13.85;94.06;95122.28;5012821;28;20067;-50
2024/04/08 06:42:19;;;;;;;35.05;17.63;;;18.60;57.00;;;14.09;92.46;95120.22;5014511;28;20037;-48
2024/04/08 06:44:49;;;;;;;28.60;14.70;;;18.80;56.80;;;14.33;87.57;95121.91;5000943;28;20025;-51
2024/04/08 06:47:15;;;;;;;28.85;12.60;;;19.00;56.20;;;14.60;86.63;95120.31;5015775;28;20041;-52
2024/04/08 06:49:43;;;;;;;17.02;9.70;;;19.30;56.00;;;14.82;82.38;95112.31;5013429;28;20033;-52
2024/04/08 06:52:09;;;;;;;20.48;8.65;;;19.60;55.50;;;15.03;72.63;95107.28;5017623;28;20078;-49
2024/04/08 06:54:35;;;;;;;19.52;9.10;;;19.80;54.60;;;15.36;78.78;95110.53;5016468;28;20033;-49
2024/04/08 06:57:01;;;;;;;12.93;7.07;;;20.10;54.30;;;15.68;77.83;95109.47;5011606;28;20079;-51
2024/04/08 06:59:28;;;;;;;19.20;6.70;;;20.40;53.90;;;15.90;76.53;95107.84;5014826;28;20044;-53
2024/04/08 07:01:55;;;;;;;13.90;5.85;;;20.60;53.60;;;16.11;77.35;95100.81;5011945;28;20057;-50
2024/04/08 07:04:22;;;;;;;9.55;3.67;;;20.90;53.20;;;16.36;77.79;95085.09;5017102;28;20075;-48
2024/04/08 07:06:48;;;;;;;21.08;3.47;;;21.20;53.00;;;16.61;76.87;95086.25;5023192;23;20045;-49
2024/04/08 07:09:14;;;;;;;14.10;4.05;;;21.40;52.70;;;16.86;75.69;95090.09;5006943;28;20050;-50
2024/04/08 07:11:40;;;;;;;14.32;4.72;;;21.70;52.30;;;17.14;75.27;95089.75;5008893;28;20068;-49
2024/04/08 07:14:06;;;;;;;17.27;6.40;;;21.90;52.00;;;17.42;74.33;95090.19;5005722;28;20440;-51
2024/04/08 07:16:33;;;;;;;18.35;6.28;;;22.20;51.70;;;17.67;72.60;95093.94;4997007;28;20428;-48
2024/04/08 07:18:59;;;;;;;10.48;3.67;;;22.50;51.40;;;17.92;69.87;95095.00;4986933;28;20468;-47
2024/04/08 07:21:24;;;;;;;13.52;3.95;;;22.70;50.70;;;18.17;69.72;95082.53;4990339;28;20034;-50
2024/04/08 07:23:53;;;;;;;13.52;4.03;;;23.00;50.40;;;18.36;68.98;95082.13;4993709;28;20022;-47
2024/04/08 07:26:19;;;;;;;22.80;4.70;;;23.20;50.10;;;18.54;68.14;95088.19;4984228;28;20112;-48
2024/04/08 07:28:45;;;;;;;17.23;3.33;;;23.30;49.60;;;18.70;63.64;95081.91;4993841;28;20171;-48
2024/04/08 07:31:11;;;;;;;13.85;3.63;;;23.50;49.10;;;18.88;65.66;95082.59;4987097;28;20105;-50
2024/04/08 07:33:37;;;;;;;12.77;3.80;;;23.70;48.80;;;19.10;65.31;95072.59;4986633;28;20033;-49
2024/04/08 07:36:04;;;;;;;14.35;4.30;;;23.90;48.40;;;19.30;62.96;95077.16;4993144;28;20022;-48
2024/04/08 07:38:30;;;;;;;13.98;4.05;;;24.20;48.00;;;19.43;60.97;95061.81;4990291;28;20185;-48
2024/04/08 07:40:56;;;;;;;10.20;3.10;;;24.50;47.50;;;19.61;57.19;95067.81;4983585;28;20095;-54
2024/04/08 07:43:22;;;;;;;10.65;3.97;;;24.80;46.70;;;19.90;56.84;95077.69;4992494;28;20109;-50
2024/04/08 07:45:48;;;;;;;17.67;4.03;;;25.10;46.00;;;20.15;55.09;95064.19;4989913;28;20038;-54
2024/04/08 07:48:14;;;;;;;12.80;3.15;;;25.40;45.40;;;20.40;51.17;95064.97;4993357;28;20424;-52
2024/04/08 07:50:40;;;;;;;10.50;3.35;;;25.70;44.40;;;20.63;50.24;95059.91;4987970;28;20022;-48
2024/04/08 07:53:06;;;;;;;12.55;3.65;;;25.90;43.50;;;20.91;51.90;95079.69;4992830;28;20201;-49
2024/04/08 07:55:32;;;;;;;16.27;3.20;;;26.20;43.10;;;21.14;48.11;95061.00;4983500;28;20034;-52
2024/04/08 07:57:58;;;;;;;10.52;3.13;;;26.60;42.30;;;21.39;44.96;95074.47;4974803;28;20148;-49
2024/04/08 08:00:24;;;;;;;11.52;3.38;;;26.90;41.30;;;21.77;47.20;95059.59;4987927;28;20030;-50
2024/04/08 08:02:50;;;;;;;9.23;3.28;;;27.20;40.70;;;22.12;45.91;95070.53;4989326;28;20044;-51
2024/04/08 08:05:16;;;;;;;11.25;2.60;;;27.50;40.10;;;22.49;43.08;95078.41;4985771;28;20503;-51
2024/04/08 08:07:41;;;;;;;7.88;3.05;;;27.80;39.40;;;22.88;42.56;95073.88;4985881;28;20416;-53
2024/04/08 08:10:07;;;;;;;15.30;3.33;;;28.20;38.60;;;23.29;45.21;95083.28;4985695;28;20049;-49
2024/04/08 08:12:34;;;;;;;15.13;3.72;;;28.60;38.50;;;23.66;43.46;95080.09;4991053;28;20034;-50
2024/04/08 08:15:00;;;;;;;14.15;3.15;;;29.00;37.90;;;24.08;42.08;95086.69;4982161;28;20464;-52
2024/04/08 08:17:26;;;;;;;11.63;3.55;;;29.50;37.50;;;24.46;40.73;95077.59;4984918;28;20061;-49
2024/04/08 08:19:55;;;;;;;12.88;3.60;;;29.90;36.70;;;24.68;37.85;95071.31;4981757;28;20029;-52
2024/04/08 08:22:22;;;;;;;12.48;3.40;;;30.30;36.20;;;24.95;36.41;95070.53;4987310;28;20092;-55
2024/04/08 08:24:49;;;;;;;18.92;3.95;;;30.70;34.70;;;25.16;34.74;95057.19;4989865;28;20041;-49
2024/04/08 08:27:15;;;;;;;11.75;3.08;;;31.10;33.70;;;25.41;34.03;95064.88;4986553;28;20084;-52
2024/04/08 08:29:41;;;;;;;18.55;4.43;;;31.30;32.80;;;25.62;34.82;95057.72;4980147;28;20514;-49
2024/04/08 08:32:07;;;;;;;14.93;3.60;;;31.50;32.10;;;25.62;29.74;95065.91;4984743;28;20025;-53
2024/04/08 08:34:32;;;;;;;15.75;4.13;;;31.60;30.90;;;25.47;31.18;95068.84;4984681;28;20030;-49
2024/04/08 08:36:58;;;;;;;14.38;3.72;;;31.70;30.10;;;25.56;32.09;95055.69;4985387;28;20040;-53
2024/04/08 08:39:24;;;;;;;16.85;3.60;;;31.70;29.80;;;25.48;32.43;95060.31;4986732;28;20030;-50
2024/04/08 08:41:58;;;;;;;10.32;3.40;;;31.70;29.60;;;25.58;34.03;95064.31;4985071;28;20025;-53
2024/04/08 08:44:28;;;;;;;10.55;4.00;;;31.70;29.50;;;25.51;33.86;95064.19;4982405;28;20033;-53
2024/04/08 08:46:57;;;;;;;10.45;3.55;;;31.70;29.50;;;25.59;34.18;95063.13;4965853;28;20396;-49
2024/04/08 08:49:29;;;;;;;14.32;3.50;;;31.70;29.60;;;25.44;31.88;95062.19;4972165;28;20065;-51
2024/04/08 08:51:56;;;;;;;12.55;3.67;;;31.60;29.00;;;25.52;32.30;95047.47;4987094;28;20050;-52
2024/04/08 08:54:22;;;;;;;20.27;3.90;;;31.60;29.20;;;25.23;33.36;95051.84;4989158;28;20095;-50
2024/04/08 08:56:48;;;;;;;12.98;3.88;;;31.50;29.00;;;25.30;33.52;95048.41;4985441;28;20040;-54
2024/04/08 08:59:16;;;;;;;12.32;3.83;;;31.50;28.90;;;25.53;33.65;95040.88;4983620;28;20048;-50
2024/04/08 09:01:42;;;;;;;18.55;4.60;;;31.40;28.90;;;25.57;33.72;95040.91;4968288;28;20112;-56
2024/04/08 09:04:14;;;;;;;17.95;4.35;;;31.40;29.10;;;25.59;35.32;95038.59;4989955;28;20109;-54
2024/04/08 09:06:54;;;;;;;13.02;3.35;;;31.40;29.10;;;24.74;35.44;95036.38;4985162;28;20136;-52
2024/04/08 09:09:20;;;;;;;13.38;3.65;;;31.30;29.00;;;24.48;38.51;95039.16;4989273;28;20227;-51
2024/04/08 09:11:50;;;;;;;18.75;4.40;;;31.10;29.40;;;24.61;40.60;95033.09;4989348;28;20432;-50
2024/04/08 09:14:16;;;;;;;12.82;3.75;;;30.90;30.60;;;24.73;38.31;95047.66;4988259;28;20041;-49
2024/04/08 09:16:43;;;;;;;11.90;3.45;;;30.80;30.00;;;24.85;38.04;95039.25;4982932;28;20079;-55
2024/04/08 09:19:09;;;;;;;12.60;3.83;;;30.60;30.10;;;24.81;36.65;95028.31;4991032;28;20123;-49
2024/04/08 09:21:35;;;;;;;18.45;3.95;;;30.60;30.00;;;24.84;36.25;95033.00;4985879;28;20021;-51
2024/04/08 09:24:07;;;;;;;23.35;4.35;;;30.50;30.00;;;24.74;36.08;95028.22;4987464;28;20438;-53
2024/04/08 09:26:35;;;;;;;15.70;3.63;;;30.50;29.70;;;24.40;37.28;95030.03;4971687;28;20268;-51
2024/04/08 09:29:02;;;;;;;23.02;4.35;;;30.40;29.70;;;24.29;36.16;95015.47;4981845;28;20056;-50
2024/04/08 09:31:29;;;;;;;13.27;3.58;;;30.40;29.60;;;23.71;36.68;95019.22;4985916;28;20480;-54
2024/04/08 09:33:56;;;;;;;16.25;3.58;;;30.40;29.40;;;24.05;40.03;95022.13;4984937;28;20136;-51
2024/04/08 09:36:24;;;;;;;14.75;3.53;;;30.40;29.80;;;24.35;40.98;95019.47;4982276;28;20068;-52
2024/04/08 09:38:52;;;;;;;12.55;3.55;;;30.40;30.20;;;24.56;39.04;95011.63;4964087;28;20123;-51
2024/04/08 09:41:20;;;;;;;18.13;3.80;;;30.60;30.10;;;24.68;40.51;95003.25;4968019;28;20021;-55
2024/04/08 09:43:47;;;;;;;16.52;3.78;;;30.80;30.30;;;25.02;41.24;95006.00;4966967;28;20034;-51
2024/04/08 09:46:14;;;;;;;17.17;4.20;;;31.10;30.40;;;25.28;39.16;95002.44;4983533;28;20365;-56
2024/04/08 09:48:40;;;;;;;17.17;4.13;;;31.50;30.20;;;25.33;39.05;95002.13;4982436;28;20033;-50
2024/04/08 09:51:09;;;;;;;21.58;4.55;;;31.80;30.00;;;25.25;38.54;95010.56;4984894;28;20030;-50
2024/04/08 09:53:35;;;;;;;16.25;4.53;;;32.00;29.90;;;25.24;38.60;95009.03;4987021;28;20033;-52
2024/04/08 09:56:15;;;;;;;17.05;4.05;;;32.20;29.60;;;25.49;37.91;95007.34;4979997;28;20040;-50
2024/04/08 09:58:59;;;;;;;20.95;4.28;;;32.40;29.60;;;25.84;38.07;94995.22;4985941;28;20040;-55
2024/04/08 10:01:27;;;;;;;19.90;4.70;;;32.60;29.40;;;26.25;38.50;95000.59;4963666;28;20056;-53
2024/04/08 10:04:02;;;;;;;18.45;4.78;;;32.90;29.50;;;26.62;37.52;95005.16;4985736;28;20013;-53
2024/04/08 10:06:30;;;;;;;22.75;4.78;;;33.20;29.30;;;26.84;35.70;94997.88;4982047;28;20060;-51
2024/04/08 10:08:58;;;;;;;16.48;4.22;;;33.50;29.00;;;27.06;36.00;94991.31;4978563;28;20083;-58
2024/04/08 10:11:24;;;;;;;21.77;5.13;;;33.80;28.70;;;27.07;35.23;94992.09;4967539;28;20092;-49